sensor_id;sensor_type;location;lat;lon;timestamp;P1;durP1;ratioP1;P2;durP2;ratioP2
14030;SDS011;7090;49.436;8.490;2023-08-07T00:00:27;6.20;;;5.90;;
14030;SDS011;7090;49.436;8.490;2023-08-07T00:02:52;6.73;;;6.27;;
14030;SDS011;7090;49.436;8.490;2023-08-07T00:05:18;6.73;;;6.43;;
14030;SDS011;7090;49.436;8.490;2023-08-07T00:07:44;6.20;;;6.00;;
14030;SDS011;7090;49.436;8.490;2023-08-07T00:10:09;5.83;;;5.57;;
14030;SDS011;7090;49.436;8.490;2023-08-07T00:12:35;6.40;;;6.20;;
14030;SDS011;7090;49.436;8.490;2023-08-07T00:15:01;5.70;;;5.50;;
14030;SDS011;7090;49.436;8.490;2023-08-07T00:17:28;6.90;;;6.50;;
14030;SDS011;7090;49.436;8.490;2023-08-07T00:19:53;6.13;;;5.50;;
14030;SDS011;7090;49.436;8.490;2023-08-07T00:22:19;5.60;;;5.40;;
14030;SDS011;7090;49.436;8.490;2023-08-07T00:24:45;6.33;;;6.03;;
14030;SDS011;7090;49.436;8.490;2023-08-07T00:27:10;6.77;;;6.37;;
14030;SDS011;7090;49.436;8.490;2023-08-07T00:29:37;6.90;;;6.13;;
14030;SDS011;7090;49.436;8.490;2023-08-07T00:32:03;7.03;;;6.57;;
14030;SDS011;7090;49.436;8.490;2023-08-07T00:34:29;6.57;;;6.33;;
14030;SDS011;7090;49.436;8.490;2023-08-07T00:36:54;6.30;;;6.10;;
14030;SDS011;7090;49.436;8.490;2023-08-07T00:39:20;6.70;;;6.40;;
14030;SDS011;7090;49.436;8.490;2023-08-07T00:41:46;6.20;;;6.00;;
14030;SDS011;7090;49.436;8.490;2023-08-07T00:44:11;7.03;;;6.73;;
14030;SDS011;7090;49.436;8.490;2023-08-07T00:46:37;6.43;;;6.23;;
14030;SDS011;7090;49.436;8.490;2023-08-07T00:49:06;8.17;;;6.80;;
14030;SDS011;7090;49.436;8.490;2023-08-07T00:51:33;6.43;;;6.13;;
14030;SDS011;7090;49.436;8.490;2023-08-07T00:54:00;6.00;;;5.80;;
14030;SDS011;7090;49.436;8.490;2023-08-07T00:56:28;5.90;;;5.70;;
14030;SDS011;7090;49.436;8.490;2023-08-07T00:58:55;6.83;;;6.53;;
14030;SDS011;7090;49.436;8.490;2023-08-07T01:01:21;7.33;;;6.80;;
14030;SDS011;7090;49.436;8.490;2023-08-07T01:03:46;6.83;;;6.57;;
14030;SDS011;7090;49.436;8.490;2023-08-07T01:06:12;6.33;;;6.10;;
14030;SDS011;7090;49.436;8.490;2023-08-07T01:08:37;6.20;;;6.00;;
14030;SDS011;7090;49.436;8.490;2023-08-07T01:13:50;12.30;;;6.03;;
14030;SDS011;7090;49.436;8.490;2023-08-07T01:16:30;6.43;;;6.13;;
14030;SDS011;7090;49.436;8.490;2023-08-07T01:18:57;6.10;;;5.90;;
14030;SDS011;7090;49.436;8.490;2023-08-07T01:21:25;6.33;;;5.80;;
14030;SDS011;7090;49.436;8.490;2023-08-07T01:23:51;6.53;;;5.90;;
14030;SDS011;7090;49.436;8.490;2023-08-07T01:26:17;6.90;;;6.40;;
14030;SDS011;7090;49.436;8.490;2023-08-07T01:29:22;6.30;;;6.00;;
14030;SDS011;7090;49.436;8.490;2023-08-07T01:31:57;5.67;;;5.47;;
14030;SDS011;7090;49.436;8.490;2023-08-07T01:34:25;5.70;;;5.50;;
14030;SDS011;7090;49.436;8.490;2023-08-07T01:36:51;5.80;;;5.60;;
14030;SDS011;7090;49.436;8.490;2023-08-07T01:39:19;6.23;;;5.97;;
14030;SDS011;7090;49.436;8.490;2023-08-07T01:41:46;5.90;;;5.70;;
14030;SDS011;7090;49.436;8.490;2023-08-07T01:44:12;6.40;;;6.10;;
14030;SDS011;7090;49.436;8.490;2023-08-07T01:46:38;12.77;;;6.73;;
14030;SDS011;7090;49.436;8.490;2023-08-07T01:49:03;6.07;;;5.87;;
14030;SDS011;7090;49.436;8.490;2023-08-07T01:51:29;6.30;;;6.03;;
14030;SDS011;7090;49.436;8.490;2023-08-07T01:53:54;6.27;;;5.97;;
14030;SDS011;7090;49.436;8.490;2023-08-07T01:56:20;6.30;;;6.10;;
14030;SDS011;7090;49.436;8.490;2023-08-07T01:58:46;6.00;;;5.80;;
14030;SDS011;7090;49.436;8.490;2023-08-07T02:01:11;6.87;;;6.57;;
14030;SDS011;7090;49.436;8.490;2023-08-07T02:03:37;6.47;;;6.20;;
14030;SDS011;7090;49.436;8.490;2023-08-07T02:06:02;8.00;;;6.30;;
14030;SDS011;7090;49.436;8.490;2023-08-07T02:08:28;5.90;;;5.70;;
14030;SDS011;7090;49.436;8.490;2023-08-07T02:10:54;8.17;;;6.47;;
14030;SDS011;7090;49.436;8.490;2023-08-07T02:13:19;6.40;;;6.10;;
14030;SDS011;7090;49.436;8.490;2023-08-07T02:15:45;6.10;;;5.90;;
14030;SDS011;7090;49.436;8.490;2023-08-07T02:18:10;6.43;;;6.13;;
14030;SDS011;7090;49.436;8.490;2023-08-07T02:20:36;7.13;;;6.63;;
14030;SDS011;7090;49.436;8.490;2023-08-07T02:23:01;6.40;;;6.10;;
14030;SDS011;7090;49.436;8.490;2023-08-07T02:25:27;6.77;;;6.33;;
14030;SDS011;7090;49.436;8.490;2023-08-07T02:27:53;6.73;;;6.43;;
14030;SDS011;7090;49.436;8.490;2023-08-07T02:30:18;6.17;;;5.93;;
14030;SDS011;7090;49.436;8.490;2023-08-07T02:32:44;5.83;;;5.63;;
14030;SDS011;7090;49.436;8.490;2023-08-07T02:35:10;5.83;;;5.63;;
14030;SDS011;7090;49.436;8.490;2023-08-07T02:37:36;6.30;;;5.90;;
14030;SDS011;7090;49.436;8.490;2023-08-07T02:40:01;6.30;;;6.00;;
14030;SDS011;7090;49.436;8.490;2023-08-07T02:42:27;6.43;;;6.03;;
14030;SDS011;7090;49.436;8.490;2023-08-07T02:44:53;5.87;;;5.57;;
14030;SDS011;7090;49.436;8.490;2023-08-07T02:47:18;5.90;;;5.70;;
14030;SDS011;7090;49.436;8.490;2023-08-07T02:49:44;6.50;;;6.20;;
14030;SDS011;7090;49.436;8.490;2023-08-07T02:52:09;5.97;;;5.63;;
14030;SDS011;7090;49.436;8.490;2023-08-07T02:54:35;6.60;;;6.07;;
14030;SDS011;7090;49.436;8.490;2023-08-07T02:57:00;5.80;;;5.57;;
14030;SDS011;7090;49.436;8.490;2023-08-07T02:59:26;8.63;;;5.90;;
14030;SDS011;7090;49.436;8.490;2023-08-07T03:01:51;5.70;;;5.30;;
14030;SDS011;7090;49.436;8.490;2023-08-07T03:04:17;5.70;;;5.50;;
14030;SDS011;7090;49.436;8.490;2023-08-07T03:06:43;6.60;;;6.20;;
14030;SDS011;7090;49.436;8.490;2023-08-07T03:09:08;5.90;;;5.70;;
14030;SDS011;7090;49.436;8.490;2023-08-07T03:11:34;7.13;;;6.17;;
14030;SDS011;7090;49.436;8.490;2023-08-07T03:13:59;6.83;;;6.53;;
14030;SDS011;7090;49.436;8.490;2023-08-07T03:16:25;5.93;;;5.67;;
14030;SDS011;7090;49.436;8.490;2023-08-07T03:18:50;6.50;;;6.20;;
14030;SDS011;7090;49.436;8.490;2023-08-07T03:21:16;6.07;;;5.87;;
14030;SDS011;7090;49.436;8.490;2023-08-07T03:23:42;6.77;;;6.37;;
14030;SDS011;7090;49.436;8.490;2023-08-07T03:26:08;7.10;;;6.57;;
14030;SDS011;7090;49.436;8.490;2023-08-07T03:28:36;6.50;;;6.00;;
14030;SDS011;7090;49.436;8.490;2023-08-07T03:31:02;6.87;;;6.47;;
14030;SDS011;7090;49.436;8.490;2023-08-07T03:33:28;7.47;;;6.90;;
14030;SDS011;7090;49.436;8.490;2023-08-07T03:35:54;6.93;;;6.53;;
14030;SDS011;7090;49.436;8.490;2023-08-07T03:38:19;6.37;;;5.97;;
14030;SDS011;7090;49.436;8.490;2023-08-07T03:40:45;6.10;;;5.77;;
14030;SDS011;7090;49.436;8.490;2023-08-07T03:43:11;6.03;;;5.83;;
14030;SDS011;7090;49.436;8.490;2023-08-07T03:45:37;8.53;;;7.10;;
14030;SDS011;7090;49.436;8.490;2023-08-07T03:48:03;6.93;;;6.67;;
14030;SDS011;7090;49.436;8.490;2023-08-07T03:50:28;8.97;;;8.30;;
14030;SDS011;7090;49.436;8.490;2023-08-07T03:52:55;9.40;;;9.00;;
14030;SDS011;7090;49.436;8.490;2023-08-07T03:55:21;10.07;;;9.67;;
14030;SDS011;7090;49.436;8.490;2023-08-07T03:57:46;9.37;;;8.97;;
14030;SDS011;7090;49.436;8.490;2023-08-07T04:00:12;8.93;;;8.53;;
14030;SDS011;7090;49.436;8.490;2023-08-07T04:02:38;9.00;;;8.40;;
14030;SDS011;7090;49.436;8.490;2023-08-07T04:05:04;8.50;;;8.20;;
14030;SDS011;7090;49.436;8.490;2023-08-07T04:07:30;8.93;;;8.53;;
14030;SDS011;7090;49.436;8.490;2023-08-07T04:09:55;9.40;;;8.97;;
14030;SDS011;7090;49.436;8.490;2023-08-07T04:12:21;9.17;;;8.57;;
14030;SDS011;7090;49.436;8.490;2023-08-07T04:14:47;8.57;;;8.17;;
14030;SDS011;7090;49.436;8.490;2023-08-07T04:17:12;8.87;;;8.37;;
14030;SDS011;7090;49.436;8.490;2023-08-07T04:19:38;8.30;;;7.80;;
14030;SDS011;7090;49.436;8.490;2023-08-07T04:22:04;7.80;;;7.40;;
14030;SDS011;7090;49.436;8.490;2023-08-07T04:24:29;7.40;;;7.10;;
14030;SDS011;7090;49.436;8.490;2023-08-07T04:26:55;7.60;;;7.30;;
14030;SDS011;7090;49.436;8.490;2023-08-07T04:29:20;8.47;;;8.00;;
14030;SDS011;7090;49.436;8.490;2023-08-07T04:31:46;8.30;;;7.90;;
14030;SDS011;7090;49.436;8.490;2023-08-07T04:34:11;8.47;;;8.07;;
14030;SDS011;7090;49.436;8.490;2023-08-07T04:36:37;8.40;;;8.00;;
14030;SDS011;7090;49.436;8.490;2023-08-07T04:39:03;7.80;;;7.50;;
14030;SDS011;7090;49.436;8.490;2023-08-07T04:41:28;9.20;;;8.30;;
14030;SDS011;7090;49.436;8.490;2023-08-07T04:43:54;7.80;;;7.50;;
14030;SDS011;7090;49.436;8.490;2023-08-07T04:46:20;8.57;;;8.07;;
14030;SDS011;7090;49.436;8.490;2023-08-07T04:48:45;9.17;;;7.83;;
14030;SDS011;7090;49.436;8.490;2023-08-07T04:51:12;9.07;;;8.50;;
14030;SDS011;7090;49.436;8.490;2023-08-07T04:53:38;7.70;;;7.30;;
14030;SDS011;7090;49.436;8.490;2023-08-07T04:56:03;7.27;;;6.90;;
14030;SDS011;7090;49.436;8.490;2023-08-07T04:58:29;7.23;;;6.90;;
14030;SDS011;7090;49.436;8.490;2023-08-07T05:00:58;17.77;;;7.43;;
14030;SDS011;7090;49.436;8.490;2023-08-07T05:03:25;6.97;;;6.67;;
14030;SDS011;7090;49.436;8.490;2023-08-07T05:05:57;6.57;;;6.37;;
14030;SDS011;7090;49.436;8.490;2023-08-07T05:08:24;7.73;;;7.00;;
14030;SDS011;7090;49.436;8.490;2023-08-07T05:10:50;7.87;;;7.47;;
14030;SDS011;7090;49.436;8.490;2023-08-07T05:13:15;7.10;;;6.80;;
14030;SDS011;7090;49.436;8.490;2023-08-07T05:15:41;7.03;;;6.60;;
14030;SDS011;7090;49.436;8.490;2023-08-07T05:18:07;6.80;;;6.50;;
14030;SDS011;7090;49.436;8.490;2023-08-07T05:20:33;6.20;;;6.00;;
14030;SDS011;7090;49.436;8.490;2023-08-07T05:22:59;7.20;;;6.70;;
14030;SDS011;7090;49.436;8.490;2023-08-07T05:25:25;7.60;;;7.03;;
14030;SDS011;7090;49.436;8.490;2023-08-07T05:27:51;7.23;;;6.90;;
14030;SDS011;7090;49.436;8.490;2023-08-07T05:30:16;6.60;;;6.30;;
14030;SDS011;7090;49.436;8.490;2023-08-07T05:32:42;6.20;;;6.00;;
14030;SDS011;7090;49.436;8.490;2023-08-07T05:35:08;7.00;;;6.60;;
14030;SDS011;7090;49.436;8.490;2023-08-07T05:37:34;7.83;;;7.03;;
14030;SDS011;7090;49.436;8.490;2023-08-07T05:39:59;6.50;;;6.30;;
14030;SDS011;7090;49.436;8.490;2023-08-07T05:42:25;6.67;;;6.37;;
14030;SDS011;7090;49.436;8.490;2023-08-07T05:44:51;10.97;;;6.63;;
14030;SDS011;7090;49.436;8.490;2023-08-07T05:47:16;8.07;;;6.97;;
14030;SDS011;7090;49.436;8.490;2023-08-07T05:49:42;6.80;;;6.50;;
14030;SDS011;7090;49.436;8.490;2023-08-07T05:52:08;7.23;;;6.83;;
14030;SDS011;7090;49.436;8.490;2023-08-07T05:54:34;6.30;;;6.10;;
14030;SDS011;7090;49.436;8.490;2023-08-07T05:56:59;7.03;;;6.63;;
14030;SDS011;7090;49.436;8.490;2023-08-07T05:59:25;6.47;;;6.17;;
14030;SDS011;7090;49.436;8.490;2023-08-07T06:01:51;7.87;;;7.47;;
14030;SDS011;7090;49.436;8.490;2023-08-07T06:04:17;6.80;;;6.50;;
14030;SDS011;7090;49.436;8.490;2023-08-07T06:06:42;6.87;;;6.57;;
14030;SDS011;7090;49.436;8.490;2023-08-07T06:09:08;7.77;;;7.10;;
14030;SDS011;7090;49.436;8.490;2023-08-07T06:11:34;7.03;;;6.72;;
14030;SDS011;7090;49.436;8.490;2023-08-07T06:14:00;6.93;;;6.53;;
14030;SDS011;7090;49.436;8.490;2023-08-07T06:16:26;6.85;;;6.55;;
14030;SDS011;7090;49.436;8.490;2023-08-07T06:18:52;6.90;;;6.60;;
14030;SDS011;7090;49.436;8.490;2023-08-07T06:21:18;6.50;;;6.30;;
14030;SDS011;7090;49.436;8.490;2023-08-07T06:23:45;7.30;;;6.80;;
14030;SDS011;7090;49.436;8.490;2023-08-07T06:26:10;6.43;;;6.13;;
14030;SDS011;7090;49.436;8.490;2023-08-07T06:28:36;6.80;;;6.50;;
14030;SDS011;7090;49.436;8.490;2023-08-07T06:31:11;8.60;;;6.80;;
14030;SDS011;7090;49.436;8.490;2023-08-07T06:33:37;7.00;;;6.50;;
14030;SDS011;7090;49.436;8.490;2023-08-07T06:36:03;6.40;;;6.20;;
14030;SDS011;7090;49.436;8.490;2023-08-07T06:38:30;7.07;;;6.65;;
14030;SDS011;7090;49.436;8.490;2023-08-07T06:40:55;6.95;;;6.57;;
14030;SDS011;7090;49.436;8.490;2023-08-07T06:43:21;6.10;;;5.90;;
14030;SDS011;7090;49.436;8.490;2023-08-07T06:45:50;6.90;;;6.50;;
14030;SDS011;7090;49.436;8.490;2023-08-07T06:48:17;6.90;;;6.60;;
14030;SDS011;7090;49.436;8.490;2023-08-07T06:50:43;6.97;;;6.67;;
14030;SDS011;7090;49.436;8.490;2023-08-07T06:53:09;6.20;;;6.00;;
14030;SDS011;7090;49.436;8.490;2023-08-07T06:55:34;6.90;;;6.60;;
14030;SDS011;7090;49.436;8.490;2023-08-07T06:58:00;7.07;;;6.77;;
14030;SDS011;7090;49.436;8.490;2023-08-07T07:00:26;6.07;;;5.87;;
14030;SDS011;7090;49.436;8.490;2023-08-07T07:02:51;6.30;;;6.10;;
14030;SDS011;7090;49.436;8.490;2023-08-07T07:05:17;7.03;;;6.63;;
14030;SDS011;7090;49.436;8.490;2023-08-07T07:07:43;7.20;;;6.70;;
14030;SDS011;7090;49.436;8.490;2023-08-07T07:10:09;7.00;;;6.60;;
14030;SDS011;7090;49.436;8.490;2023-08-07T07:12:34;6.90;;;6.55;;
14030;SDS011;7090;49.436;8.490;2023-08-07T07:15:00;7.47;;;7.10;;
14030;SDS011;7090;49.436;8.490;2023-08-07T07:17:27;7.10;;;6.80;;
14030;SDS011;7090;49.436;8.490;2023-08-07T07:19:53;7.13;;;6.82;;
14030;SDS011;7090;49.436;8.490;2023-08-07T07:22:18;6.40;;;6.20;;
14030;SDS011;7090;49.436;8.490;2023-08-07T07:24:44;6.70;;;6.40;;
14030;SDS011;7090;49.436;8.490;2023-08-07T07:27:09;6.60;;;6.30;;
14030;SDS011;7090;49.436;8.490;2023-08-07T07:29:35;7.30;;;7.00;;
14030;SDS011;7090;49.436;8.490;2023-08-07T07:32:00;7.90;;;7.43;;
14030;SDS011;7090;49.436;8.490;2023-08-07T07:34:26;7.70;;;7.10;;
14030;SDS011;7090;49.436;8.490;2023-08-07T07:36:52;7.33;;;6.83;;
14030;SDS011;7090;49.436;8.490;2023-08-07T07:39:19;7.77;;;7.37;;
14030;SDS011;7090;49.436;8.490;2023-08-07T07:41:44;7.67;;;7.37;;
14030;SDS011;7090;49.436;8.490;2023-08-07T07:44:10;8.03;;;7.57;;
14030;SDS011;7090;49.436;8.490;2023-08-07T07:46:36;8.50;;;7.90;;
14030;SDS011;7090;49.436;8.490;2023-08-07T07:49:01;8.67;;;8.17;;
14030;SDS011;7090;49.436;8.490;2023-08-07T07:51:28;8.60;;;7.90;;
14030;SDS011;7090;49.436;8.490;2023-08-07T07:53:54;7.77;;;7.47;;
14030;SDS011;7090;49.436;8.490;2023-08-07T07:56:19;7.60;;;7.30;;
14030;SDS011;7090;49.436;8.490;2023-08-07T07:58:45;14.93;;;7.63;;
14030;SDS011;7090;49.436;8.490;2023-08-07T08:01:11;7.37;;;7.07;;
14030;SDS011;7090;49.436;8.490;2023-08-07T08:03:36;8.00;;;7.60;;
14030;SDS011;7090;49.436;8.490;2023-08-07T08:06:02;7.93;;;7.53;;
14030;SDS011;7090;49.436;8.490;2023-08-07T08:08:28;8.00;;;7.70;;
14030;SDS011;7090;49.436;8.490;2023-08-07T08:10:54;7.00;;;6.80;;
14030;SDS011;7090;49.436;8.490;2023-08-07T08:13:19;7.57;;;7.23;;
14030;SDS011;7090;49.436;8.490;2023-08-07T08:15:45;7.32;;;7.00;;
14030;SDS011;7090;49.436;8.490;2023-08-07T08:18:11;6.60;;;6.40;;
14030;SDS011;7090;49.436;8.490;2023-08-07T08:20:37;7.53;;;7.22;;
14030;SDS011;7090;49.436;8.490;2023-08-07T08:23:03;7.88;;;7.53;;
14030;SDS011;7090;49.436;8.490;2023-08-07T08:25:30;8.55;;;8.15;;
14030;SDS011;7090;49.436;8.490;2023-08-07T08:27:57;8.38;;;8.07;;
14030;SDS011;7090;49.436;8.490;2023-08-07T08:30:23;9.50;;;9.00;;
14030;SDS011;7090;49.436;8.490;2023-08-07T08:32:48;9.30;;;8.90;;
14030;SDS011;7090;49.436;8.490;2023-08-07T08:35:14;12.93;;;9.95;;
14030;SDS011;7090;49.436;8.490;2023-08-07T08:37:40;11.30;;;10.70;;
14030;SDS011;7090;49.436;8.490;2023-08-07T08:40:06;11.30;;;10.70;;
14030;SDS011;7090;49.436;8.490;2023-08-07T08:42:33;10.10;;;9.70;;
14030;SDS011;7090;49.436;8.490;2023-08-07T08:44:59;10.65;;;10.15;;
14030;SDS011;7090;49.436;8.490;2023-08-07T08:47:26;10.95;;;10.35;;
14030;SDS011;7090;49.436;8.490;2023-08-07T08:50:00;12.40;;;11.50;;
14030;SDS011;7090;49.436;8.490;2023-08-07T08:52:28;11.05;;;10.55;;
14030;SDS011;7090;49.436;8.490;2023-08-07T08:54:56;11.32;;;10.70;;
14030;SDS011;7090;49.436;8.490;2023-08-07T08:57:22;11.10;;;10.60;;
14030;SDS011;7090;49.436;8.490;2023-08-07T08:59:51;12.50;;;11.02;;
14030;SDS011;7090;49.436;8.490;2023-08-07T09:02:17;11.40;;;10.90;;
14030;SDS011;7090;49.436;8.490;2023-08-07T09:04:43;11.57;;;11.07;;
14030;SDS011;7090;49.436;8.490;2023-08-07T09:07:10;11.20;;;10.70;;
14030;SDS011;7090;49.436;8.490;2023-08-07T09:09:38;12.65;;;11.95;;
14030;SDS011;7090;49.436;8.490;2023-08-07T09:12:05;12.07;;;11.30;;
14030;SDS011;7090;49.436;8.490;2023-08-07T09:14:41;13.00;;;12.40;;
14030;SDS011;7090;49.436;8.490;2023-08-07T09:17:09;11.60;;;11.10;;
14030;SDS011;7090;49.436;8.490;2023-08-07T09:19:37;12.18;;;11.57;;
14030;SDS011;7090;49.436;8.490;2023-08-07T09:22:03;11.73;;;11.23;;
14030;SDS011;7090;49.436;8.490;2023-08-07T09:24:29;15.18;;;14.00;;
14030;SDS011;7090;49.436;8.490;2023-08-07T09:26:55;13.80;;;13.10;;
14030;SDS011;7090;49.436;8.490;2023-08-07T09:29:20;11.93;;;11.43;;
14030;SDS011;7090;49.436;8.490;2023-08-07T09:31:47;11.70;;;11.10;;
14030;SDS011;7090;49.436;8.490;2023-08-07T09:34:13;11.70;;;11.20;;
14030;SDS011;7090;49.436;8.490;2023-08-07T09:36:41;13.05;;;12.32;;
14030;SDS011;7090;49.436;8.490;2023-08-07T09:39:07;12.20;;;11.70;;
14030;SDS011;7090;49.436;8.490;2023-08-07T09:41:33;12.43;;;11.93;;
14030;SDS011;7090;49.436;8.490;2023-08-07T09:44:00;12.10;;;11.60;;
14030;SDS011;7090;49.436;8.490;2023-08-07T09:46:31;13.38;;;12.77;;
14030;SDS011;7090;49.436;8.490;2023-08-07T09:49:05;12.05;;;11.55;;
14030;SDS011;7090;49.436;8.490;2023-08-07T09:51:40;13.57;;;12.60;;
14030;SDS011;7090;49.436;8.490;2023-08-07T09:54:08;12.90;;;12.30;;
14030;SDS011;7090;49.436;8.490;2023-08-07T09:56:34;13.60;;;12.80;;
14030;SDS011;7090;49.436;8.490;2023-08-07T09:59:00;12.43;;;11.85;;
14030;SDS011;7090;49.436;8.490;2023-08-07T10:01:26;11.90;;;11.40;;
14030;SDS011;7090;49.436;8.490;2023-08-07T10:03:51;11.82;;;11.32;;
14030;SDS011;7090;49.436;8.490;2023-08-07T10:06:18;11.43;;;10.93;;
14030;SDS011;7090;49.436;8.490;2023-08-07T10:08:44;11.30;;;10.80;;
14030;SDS011;7090;49.436;8.490;2023-08-07T10:11:11;11.77;;;11.00;;
14030;SDS011;7090;49.436;8.490;2023-08-07T10:13:37;11.60;;;11.20;;
14030;SDS011;7090;49.436;8.490;2023-08-07T10:16:03;11.20;;;10.80;;
14030;SDS011;7090;49.436;8.490;2023-08-07T10:18:29;11.80;;;11.30;;
14030;SDS011;7090;49.436;8.490;2023-08-07T10:20:54;11.75;;;11.05;;
14030;SDS011;7090;49.436;8.490;2023-08-07T10:23:22;11.27;;;10.88;;
14030;SDS011;7090;49.436;8.490;2023-08-07T10:25:48;11.93;;;11.43;;
14030;SDS011;7090;49.436;8.490;2023-08-07T10:28:16;11.55;;;11.05;;
14030;SDS011;7090;49.436;8.490;2023-08-07T10:30:44;10.52;;;10.13;;
14030;SDS011;7090;49.436;8.490;2023-08-07T10:33:10;11.73;;;11.23;;
14030;SDS011;7090;49.436;8.490;2023-08-07T10:35:37;12.70;;;12.10;;
14030;SDS011;7090;49.436;8.490;2023-08-07T10:38:10;11.63;;;11.13;;
14030;SDS011;7090;49.436;8.490;2023-08-07T10:40:57;11.70;;;11.20;;
14030;SDS011;7090;49.436;8.490;2023-08-07T10:43:32;12.32;;;11.75;;
14030;SDS011;7090;49.436;8.490;2023-08-07T10:46:09;12.10;;;11.60;;
14030;SDS011;7090;49.436;8.490;2023-08-07T10:48:45;12.10;;;11.60;;
14030;SDS011;7090;49.436;8.490;2023-08-07T10:51:12;12.57;;;11.98;;
14030;SDS011;7090;49.436;8.490;2023-08-07T10:53:43;12.23;;;11.63;;
14030;SDS011;7090;49.436;8.490;2023-08-07T10:56:17;11.73;;;11.23;;
14030;SDS011;7090;49.436;8.490;2023-08-07T10:58:56;12.05;;;11.45;;
14030;SDS011;7090;49.436;8.490;2023-08-07T11:01:27;12.45;;;11.82;;
14030;SDS011;7090;49.436;8.490;2023-08-07T11:04:13;10.80;;;10.40;;
14030;SDS011;7090;49.436;8.490;2023-08-07T11:06:40;10.80;;;10.30;;
14030;SDS011;7090;49.436;8.490;2023-08-07T11:09:08;10.82;;;10.15;;
14030;SDS011;7090;49.436;8.490;2023-08-07T11:11:38;10.52;;;10.05;;
14030;SDS011;7090;49.436;8.490;2023-08-07T11:14:07;10.85;;;10.35;;
14030;SDS011;7090;49.436;8.490;2023-08-07T11:16:37;10.98;;;10.48;;
14030;SDS011;7090;49.436;8.490;2023-08-07T11:19:03;11.50;;;10.90;;
14030;SDS011;7090;49.436;8.490;2023-08-07T11:21:32;10.68;;;10.20;;
14030;SDS011;7090;49.436;8.490;2023-08-07T11:23:58;10.30;;;9.80;;
14030;SDS011;7090;49.436;8.490;2023-08-07T11:26:24;10.13;;;9.63;;
14030;SDS011;7090;49.436;8.490;2023-08-07T11:28:51;9.93;;;9.23;;
14030;SDS011;7090;49.436;8.490;2023-08-07T11:31:19;7.55;;;7.25;;
14030;SDS011;7090;49.436;8.490;2023-08-07T11:33:46;7.55;;;7.15;;
14030;SDS011;7090;49.436;8.490;2023-08-07T11:36:15;7.80;;;7.30;;
14030;SDS011;7090;49.436;8.490;2023-08-07T11:38:41;7.45;;;7.15;;
14030;SDS011;7090;49.436;8.490;2023-08-07T11:41:09;8.20;;;7.80;;
14030;SDS011;7090;49.436;8.490;2023-08-07T11:43:39;7.13;;;6.72;;
14030;SDS011;7090;49.436;8.490;2023-08-07T11:46:09;8.52;;;7.05;;
14030;SDS011;7090;49.436;8.490;2023-08-07T11:48:37;6.18;;;5.88;;
14030;SDS011;7090;49.436;8.490;2023-08-07T11:51:04;7.15;;;6.65;;
14030;SDS011;7090;49.436;8.490;2023-08-07T11:53:32;6.97;;;6.40;;
14030;SDS011;7090;49.436;8.490;2023-08-07T11:56:00;7.60;;;7.20;;
14030;SDS011;7090;49.436;8.490;2023-08-07T11:58:31;6.40;;;6.20;;
14030;SDS011;7090;49.436;8.490;2023-08-07T12:01:05;7.75;;;7.25;;
14030;SDS011;7090;49.436;8.490;2023-08-07T12:03:32;7.20;;;6.80;;
14030;SDS011;7090;49.436;8.490;2023-08-07T12:06:02;7.25;;;6.85;;
14030;SDS011;7090;49.436;8.490;2023-08-07T12:08:48;7.97;;;7.43;;
14030;SDS011;7090;49.436;8.490;2023-08-07T12:11:16;7.10;;;6.80;;
14030;SDS011;7090;49.436;8.490;2023-08-07T12:13:42;7.18;;;6.88;;
14030;SDS011;7090;49.436;8.490;2023-08-07T12:16:10;7.60;;;7.20;;
14030;SDS011;7090;49.436;8.490;2023-08-07T12:18:49;8.10;;;7.50;;
14030;SDS011;7090;49.436;8.490;2023-08-07T12:21:28;6.95;;;6.65;;
14030;SDS011;7090;49.436;8.490;2023-08-07T12:23:57;7.13;;;6.78;;
14030;SDS011;7090;49.436;8.490;2023-08-07T12:26:23;7.60;;;7.15;;
14030;SDS011;7090;49.436;8.490;2023-08-07T12:28:49;7.70;;;7.30;;
14030;SDS011;7090;49.436;8.490;2023-08-07T12:31:15;8.43;;;8.03;;
14030;SDS011;7090;49.436;8.490;2023-08-07T12:33:42;7.65;;;7.35;;
14030;SDS011;7090;49.436;8.490;2023-08-07T12:36:08;6.50;;;6.30;;
14030;SDS011;7090;49.436;8.490;2023-08-07T12:38:33;7.15;;;6.85;;
14030;SDS011;7090;49.436;8.490;2023-08-07T12:40:59;8.00;;;7.13;;
14030;SDS011;7090;49.436;8.490;2023-08-07T12:43:25;7.20;;;6.80;;
14030;SDS011;7090;49.436;8.490;2023-08-07T12:45:50;6.95;;;6.65;;
14030;SDS011;7090;49.436;8.490;2023-08-07T12:48:17;6.30;;;6.10;;
14030;SDS011;7090;49.436;8.490;2023-08-07T12:50:43;7.20;;;6.90;;
14030;SDS011;7090;49.436;8.490;2023-08-07T12:53:09;7.18;;;6.88;;
14030;SDS011;7090;49.436;8.490;2023-08-07T12:55:35;7.40;;;7.10;;
14030;SDS011;7090;49.436;8.490;2023-08-07T12:58:00;6.95;;;6.65;;
14030;SDS011;7090;49.436;8.490;2023-08-07T13:00:26;6.70;;;6.20;;
14030;SDS011;7090;49.436;8.490;2023-08-07T13:02:52;6.20;;;6.00;;
14030;SDS011;7090;49.436;8.490;2023-08-07T13:05:20;6.30;;;6.10;;
14030;SDS011;7090;49.436;8.490;2023-08-07T13:07:47;7.15;;;6.85;;
14030;SDS011;7090;49.436;8.490;2023-08-07T13:10:15;7.15;;;6.85;;
14030;SDS011;7090;49.436;8.490;2023-08-07T13:12:42;7.35;;;6.75;;
14030;SDS011;7090;49.436;8.490;2023-08-07T13:15:11;7.35;;;7.05;;
14030;SDS011;7090;49.436;8.490;2023-08-07T13:17:38;6.90;;;6.70;;
14030;SDS011;7090;49.436;8.490;2023-08-07T13:20:04;7.50;;;7.20;;
14030;SDS011;7090;49.436;8.490;2023-08-07T13:22:34;7.20;;;6.90;;
14030;SDS011;7090;49.436;8.490;2023-08-07T13:25:00;6.78;;;6.57;;
14030;SDS011;7090;49.436;8.490;2023-08-07T13:27:28;6.50;;;6.30;;
14030;SDS011;7090;49.436;8.490;2023-08-07T13:29:54;6.82;;;6.57;;
14030;SDS011;7090;49.436;8.490;2023-08-07T13:32:20;7.97;;;7.68;;
14030;SDS011;7090;49.436;8.490;2023-08-07T13:34:45;8.23;;;7.93;;
14030;SDS011;7090;49.436;8.490;2023-08-07T13:37:11;8.65;;;7.80;;
14030;SDS011;7090;49.436;8.490;2023-08-07T13:39:37;7.82;;;7.30;;
14030;SDS011;7090;49.436;8.490;2023-08-07T13:42:02;8.25;;;7.75;;
14030;SDS011;7090;49.436;8.490;2023-08-07T13:44:28;7.22;;;6.93;;
14030;SDS011;7090;49.436;8.490;2023-08-07T13:46:54;7.00;;;6.80;;
14030;SDS011;7090;49.436;8.490;2023-08-07T13:49:20;8.80;;;8.10;;
14030;SDS011;7090;49.436;8.490;2023-08-07T13:51:46;6.95;;;6.65;;
14030;SDS011;7090;49.436;8.490;2023-08-07T13:54:12;8.23;;;7.72;;
14030;SDS011;7090;49.436;8.490;2023-08-07T13:56:38;6.30;;;6.10;;
14030;SDS011;7090;49.436;8.490;2023-08-07T13:59:03;7.47;;;7.03;;
14030;SDS011;7090;49.436;8.490;2023-08-07T14:01:29;6.20;;;6.00;;
14030;SDS011;7090;49.436;8.490;2023-08-07T14:03:55;6.15;;;5.80;;
14030;SDS011;7090;49.436;8.490;2023-08-07T14:06:20;7.63;;;7.32;;
14030;SDS011;7090;49.436;8.490;2023-08-07T14:08:46;7.80;;;7.50;;
14030;SDS011;7090;49.436;8.490;2023-08-07T14:11:12;8.00;;;7.60;;
14030;SDS011;7090;49.436;8.490;2023-08-07T14:13:39;8.85;;;8.32;;
14030;SDS011;7090;49.436;8.490;2023-08-07T14:16:05;7.30;;;7.00;;
14030;SDS011;7090;49.436;8.490;2023-08-07T14:18:31;7.50;;;7.20;;
14030;SDS011;7090;49.436;8.490;2023-08-07T14:20:56;7.78;;;7.47;;
14030;SDS011;7090;49.436;8.490;2023-08-07T14:23:22;7.40;;;7.10;;
14030;SDS011;7090;49.436;8.490;2023-08-07T14:25:48;7.38;;;7.07;;
14030;SDS011;7090;49.436;8.490;2023-08-07T14:28:15;7.20;;;6.90;;
14030;SDS011;7090;49.436;8.490;2023-08-07T14:30:41;7.80;;;7.50;;
14030;SDS011;7090;49.436;8.490;2023-08-07T14:33:07;7.38;;;7.07;;
14030;SDS011;7090;49.436;8.490;2023-08-07T14:35:33;7.60;;;7.30;;
14030;SDS011;7090;49.436;8.490;2023-08-07T14:37:58;7.43;;;7.13;;
14030;SDS011;7090;49.436;8.490;2023-08-07T14:40:24;7.80;;;7.50;;
14030;SDS011;7090;49.436;8.490;2023-08-07T14:42:50;7.70;;;7.40;;
14030;SDS011;7090;49.436;8.490;2023-08-07T14:45:15;8.30;;;7.90;;
14030;SDS011;7090;49.436;8.490;2023-08-07T14:47:42;7.70;;;7.40;;
14030;SDS011;7090;49.436;8.490;2023-08-07T14:50:08;8.00;;;7.70;;
14030;SDS011;7090;49.436;8.490;2023-08-07T14:52:34;8.02;;;7.72;;
14030;SDS011;7090;49.436;8.490;2023-08-07T14:55:01;7.60;;;7.30;;